Flight Track Log - Related Links

Times and Time Zones

All times are in EDT time to prevent confusion due to time zone crossing. See the AWE3921 flight status page for this flight to view local times or setup timezone preferences in your user account.

Time Position Orientation Groundspeed Altitude Reporting Facility
EDT Latitude Longitude Course Direction KTS MPH feet Rate Location/Type
Mon 02:25:00 PM 38.6135 -77.2512 215° Southwest  Level Estimated
Mon 02:26:00 PM 38.5340 -77.3221 215° Southwest  Level Estimated
Mon 02:27:00 PM 38.4544 -77.3927 215° Southwest  Level Estimated
Mon 02:28:00 PM 38.3747 -77.4633 215° Southwest  Level Estimated
Mon 02:29:00 PM 38.2950 -77.5337 215° Southwest  Level Estimated
Mon 02:30:00 PM 38.2153 -77.6039 215° Southwest  Level Estimated
Mon 02:31:00 PM 38.1356 -77.6740 215° Southwest  Level Estimated
Mon 02:32:00 PM 38.0558 -77.7439 215° Southwest  Level Estimated
Mon 02:33:00 PM 37.9759 -77.8137 215° Southwest  Level Estimated
Mon 02:34:00 PM 37.8960 -77.8833 215° Southwest  Level Estimated
Mon 02:35:00 PM 37.8161 -77.9527 214° Southwest  Level Estimated
Mon 02:36:00 PM 37.7361 -78.0221 214° Southwest  Level Estimated
Mon 02:37:00 PM 37.6561 -78.0912 214° Southwest  Level Estimated
Mon 02:38:00 PM 37.5760 -78.1602 214° Southwest  Level Estimated
Mon 02:39:00 PM 37.4960 -78.2291 214° Southwest  Level Estimated
Mon 02:40:00 PM 37.4158 -78.2978 214° Southwest  Level Estimated
Mon 02:41:00 PM 37.3357 -78.3664 214° Southwest  Level Estimated
Mon 02:42:00 PM 37.2555 -78.4348 214° Southwest  Level Estimated
Mon 02:43:00 PM 37.1752 -78.5031 214° Southwest  Level Estimated
Mon 02:44:00 PM 37.0949 -78.5713 214° Southwest  Level Estimated
Mon 02:45:00 PM 37.0146 -78.6393 214° Southwest  Level Estimated
Mon 02:46:00 PM 36.9342 -78.7071 214° Southwest  Level Estimated
Mon 02:47:00 PM 36.8538 -78.7748 214° Southwest  Level Estimated
Mon 02:48:00 PM 36.7734 -78.8424 214° Southwest  Level Estimated
Mon 02:49:00 PM 36.6929 -78.9098 214° Southwest  Level Estimated
Mon 02:50:00 PM 36.6124 -78.9771 214° Southwest  Level Estimated
Mon 02:51:00 PM 36.5318 -79.0442 214° Southwest  Level Estimated
Mon 02:52:00 PM 36.4512 -79.1112 214° Southwest  Level Estimated
Mon 02:53:00 PM 36.3706 -79.1781 214° Southwest  Level Estimated
Mon 02:54:00 PM 36.2899 -79.2448 214° Southwest  Level Estimated
Mon 02:55:00 PM 36.2092 -79.3114 214° Southwest  Level Estimated
Mon 02:56:00 PM 36.1285 -79.3778 214° Southwest  Level Estimated
Mon 02:57:00 PM 36.0477 -79.4442 214° Southwest  Level Estimated
Mon 02:58:00 PM 35.9669 -79.5103 214° Southwest  Level Estimated
Mon 02:59:00 PM 35.8860 -79.5764 214° Southwest  Level Estimated
Mon 03:00:00 PM 35.8051 -79.6423 213° Southwest  Level Estimated
Mon 03:01:00 PM 35.7242 -79.7081 213° Southwest  Level Estimated
Mon 03:02:00 PM 35.6433 -79.7737 213° Southwest  Level Estimated
Mon 03:03:00 PM 35.5623 -79.8392 213° Southwest  Level Estimated
Mon 03:04:00 PM 35.4813 -79.9046 213° Southwest  Level Estimated
Mon 03:05:00 PM 35.4002 -79.9698 213° Southwest  Level Estimated
Mon 03:06:00 PM 35.3191 -80.0349 213° Southwest  Level Estimated
Mon 03:07:00 PM 35.2380 -80.0999 213° Southwest  Level Estimated
Mon 03:08:00 PM 35.1568 -80.1647 213° Southwest  Level Estimated
Mon 03:09:00 PM 35.0756 -80.2295 213° Southwest  Level Estimated
Mon 03:10:00 PM 34.9944 -80.2941 213° Southwest  Level Estimated
Mon 03:11:00 PM 34.9144 -80.3575 213° Southwest  Level Estimated
Mon 03:12:00 PM 34.8344 -80.4208 213° Southwest  Level Estimated
Mon 03:13:00 PM 34.7544 -80.4840 213° Southwest  Level Estimated
Mon 03:14:00 PM 34.6743 -80.5470 213° Southwest  Level Estimated
Mon 03:15:00 PM 34.5942 -80.6100 213° Southwest  Level Estimated
Mon 03:16:00 PM 34.5141 -80.6728 213° Southwest  Level Estimated
Mon 03:17:00 PM 34.4339 -80.7355 213° Southwest  Level Estimated
Mon 03:18:00 PM 34.3537 -80.7980 213° Southwest  Level Estimated
Mon 03:19:00 PM 34.2735 -80.8605 213° Southwest  Level Estimated
Mon 03:20:00 PM 34.1933 -80.9228 213° Southwest  Level Estimated
Mon 03:21:00 PM 34.1130 -80.9850 213° Southwest  Level Estimated
Mon 03:22:00 PM 34.0327 -81.0471 213° Southwest  Level Estimated
Mon 03:23:00 PM 33.9523 -81.1091 213° Southwest  Level Estimated
Mon 03:24:00 PM 33.9388 -81.1195 213° Southwest  Level Estimated
Mon 03:25:00 PM 33.9388 -81.1195 29° Northeast  Level Estimated

Login

Don't have an account? Register now (free) for customized features, flight alerts, and more!